createdAt,value
2022-12-08T00:00:21.308Z,99528.09
2022-12-08T00:01:22.282Z,99510.53
2022-12-08T00:02:16.349Z,99525.28
2022-12-08T00:03:10.558Z,99524.31
2022-12-08T00:04:05.313Z,99511.19
2022-12-08T00:05:06.684Z,99519.16
2022-12-08T00:06:14.332Z,99528.00
2022-12-08T00:07:13.348Z,99522.69
2022-12-08T00:08:11.971Z,99530.59
2022-12-08T00:09:12.312Z,99528.69
2022-12-08T00:09:52.339Z,99528.09
2022-12-08T00:10:49.458Z,99525.66
2022-12-08T00:11:30.347Z,99525.44
2022-12-08T00:12:23.316Z,99523.53
2022-12-08T00:13:03.381Z,99524.22
2022-12-08T00:13:44.345Z,99517.66
2022-12-08T00:14:24.434Z,99525.38
2022-12-08T00:15:05.549Z,99524.69
2022-12-08T00:15:46.276Z,99524.25
2022-12-08T00:16:20.414Z,99517.28
2022-12-08T00:17:08.401Z,99535.56
2022-12-08T00:17:42.399Z,99513.03
2022-12-08T00:18:29.264Z,99512.72
2022-12-08T00:19:03.364Z,99528.53
2022-12-08T00:19:51.294Z,99526.25
2022-12-08T00:20:25.409Z,99529.00
2022-12-08T00:21:06.333Z,99531.72
2022-12-08T00:21:46.361Z,99527.28
2022-12-08T00:22:26.314Z,99506.81
2022-12-08T00:23:06.370Z,99530.41
2022-12-08T00:23:46.279Z,99524.53
2022-12-08T00:24:27.330Z,99521.66
2022-12-08T00:25:08.252Z,99502.06
2022-12-08T00:25:48.338Z,99523.47
2022-12-08T00:26:29.267Z,99524.69
2022-12-08T00:27:09.323Z,99527.47
2022-12-08T00:27:50.277Z,99517.88
2022-12-08T00:28:30.357Z,99531.66
2022-12-08T00:29:17.047Z,99526.25
2022-12-08T00:29:57.309Z,99531.00
2022-12-08T00:30:38.264Z,99526.91
2022-12-08T00:31:19.518Z,99538.03
2022-12-08T00:32:00.358Z,99517.66
2022-12-08T00:32:54.289Z,99527.19
2022-12-08T00:33:48.248Z,99524.31
2022-12-08T00:34:42.304Z,99526.78
2022-12-08T00:35:41.528Z,99535.81
2022-12-08T00:36:37.296Z,99519.09
2022-12-08T00:37:24.283Z,99531.19
2022-12-08T00:38:00.945Z,99524.97
2022-12-08T00:38:49.282Z,99512.56
2022-12-08T00:39:24.432Z,99530.22
2022-12-08T00:40:12.268Z,99528.91
2022-12-08T00:40:53.628Z,99529.75
2022-12-08T00:41:59.342Z,99532.09
2022-12-08T00:42:40.354Z,99536.69
2022-12-08T00:43:34.268Z,99511.75
2022-12-08T00:44:31.245Z,99539.34
2022-12-08T00:45:26.298Z,99537.63
2022-12-08T00:46:20.326Z,99529.81
2022-12-08T00:47:14.235Z,99534.19
2022-12-08T00:48:01.299Z,99544.41
2022-12-08T00:48:35.318Z,99537.81
2022-12-08T00:49:23.220Z,99539.34
2022-12-08T00:49:57.347Z,99545.53
2022-12-08T00:50:45.235Z,99540.41
2022-12-08T00:51:19.398Z,99542.97
2022-12-08T00:52:07.243Z,99540.66
2022-12-08T00:52:41.355Z,99538.00
2022-12-08T00:53:22.334Z,99538.00
2022-12-08T00:54:02.360Z,99536.84
2022-12-08T00:54:42.247Z,99539.50
2022-12-08T00:55:22.330Z,99544.06
2022-12-08T00:56:02.216Z,99549.63
2022-12-08T00:56:42.325Z,99547.50
2022-12-08T00:57:23.218Z,99543.41
2022-12-08T00:58:03.329Z,99548.00
2022-12-08T00:58:43.372Z,99545.03
2022-12-08T00:59:23.291Z,99548.66
2022-12-08T01:00:04.470Z,99547.09
2022-12-08T01:00:48.443Z,99553.78
2022-12-08T01:01:29.237Z,99541.69
2022-12-08T01:02:10.301Z,99557.13
2022-12-08T01:02:50.286Z,99556.16
2022-12-08T01:03:30.537Z,99556.38
2022-12-08T01:04:22.275Z,99559.09
2022-12-08T01:05:02.310Z,99531.69
2022-12-08T01:05:42.259Z,99557.97
2022-12-08T01:06:22.288Z,99561.09
2022-12-08T01:07:03.322Z,99572.00
2022-12-08T01:07:43.514Z,99562.03
2022-12-08T01:08:23.288Z,99561.97
2022-12-08T01:09:03.298Z,99561.00
2022-12-08T01:09:43.207Z,99560.91
2022-12-08T01:10:23.324Z,99558.25
2022-12-08T01:11:04.258Z,99572.44
2022-12-08T01:11:45.354Z,99555.09
2022-12-08T01:12:26.214Z,99564.16
2022-12-08T01:13:06.362Z,99568.78
2022-12-08T01:13:47.251Z,99581.06
2022-12-08T01:14:27.384Z,99575.34
2022-12-08T01:15:07.214Z,99567.94
2022-12-08T01:15:47.289Z,99558.44
2022-12-08T01:16:31.250Z,99573.94
2022-12-08T01:17:11.358Z,99564.25
2022-12-08T01:17:51.220Z,99574.41
2022-12-08T01:18:31.323Z,99569.09
2022-12-08T01:19:11.258Z,99561.75
2022-12-08T01:19:51.255Z,99572.13
2022-12-08T01:20:31.240Z,99573.19
2022-12-08T01:21:14.441Z,99561.22
2022-12-08T01:21:55.225Z,99571.88
2022-12-08T01:22:36.044Z,99561.22
2022-12-08T01:23:16.213Z,99554.94
2022-12-08T01:23:58.028Z,99562.66
2022-12-08T01:24:39.208Z,99567.28
2022-12-08T01:25:19.436Z,99563.50
2022-12-08T01:26:00.243Z,99570.38
2022-12-08T01:26:40.315Z,99552.38
2022-12-08T01:27:23.187Z,99566.75
2022-12-08T01:28:03.295Z,99568.47
2022-12-08T01:28:43.175Z,99550.94
2022-12-08T01:29:23.261Z,99571.50
2022-12-08T01:30:03.519Z,99570.75
2022-12-08T01:30:47.354Z,99569.38
2022-12-08T01:31:29.274Z,99572.25
2022-12-08T01:32:09.440Z,99573.97
2022-12-08T01:32:50.221Z,99570.16
2022-12-08T01:33:31.372Z,99577.41
2022-12-08T01:34:12.187Z,99576.28
2022-12-08T01:34:53.389Z,99579.47
2022-12-08T01:35:34.221Z,99575.50
2022-12-08T01:36:16.250Z,99573.63
2022-12-08T01:36:56.232Z,99576.56
2022-12-08T01:37:36.236Z,99575.50
2022-12-08T01:38:17.211Z,99568.63
2022-12-08T01:38:58.295Z,99572.94
2022-12-08T01:39:39.206Z,99557.59
2022-12-08T01:40:19.308Z,99577.69
2022-12-08T01:40:59.255Z,99568.63
2022-12-08T01:41:43.585Z,99572.44
2022-12-08T01:42:30.184Z,99562.34
2022-12-08T01:43:10.307Z,99573.88
2022-12-08T01:44:15.191Z,99581.56
2022-12-08T01:45:08.282Z,99571.13
2022-12-08T01:45:48.254Z,99579.75
2022-12-08T01:46:29.402Z,99590.88
2022-12-08T01:47:09.199Z,99585.34
2022-12-08T01:47:52.278Z,99579.09
2022-12-08T01:48:33.261Z,99573.81
2022-12-08T01:49:38.260Z,99575.03
2022-12-08T01:50:15.258Z,99580.00
2022-12-08T01:51:03.204Z,99591.72
2022-12-08T01:51:42.283Z,99588.22
2022-12-08T01:52:36.175Z,99571.06
2022-12-08T01:53:35.335Z,99589.06
2022-12-08T01:54:29.200Z,99571.81
2022-12-08T01:55:49.193Z,99553.28
2022-12-08T01:57:14.164Z,99578.16
2022-12-08T01:58:14.190Z,99577.13
2022-12-08T01:58:57.207Z,99561.28
2022-12-08T01:59:41.436Z,99571.13
2022-12-08T02:00:25.177Z,99564.25
2022-12-08T02:01:05.342Z,99568.72
2022-12-08T02:01:46.279Z,99566.22
2022-12-08T02:02:27.310Z,99563.47
2022-12-08T02:03:11.183Z,99568.63
2022-12-08T02:04:06.226Z,99541.78
2022-12-08T02:05:00.191Z,99567.28
2022-12-08T02:05:55.228Z,99560.53
2022-12-08T02:06:54.205Z,99563.88
2022-12-08T02:07:49.305Z,99565.78
2022-12-08T02:08:45.200Z,99564.25
2022-12-08T02:09:27.193Z,99569.56
2022-12-08T02:10:07.359Z,99561.28
2022-12-08T02:10:50.154Z,99566.50
2022-12-08T02:11:30.239Z,99556.63
2022-12-08T02:12:11.166Z,99559.09
2022-12-08T02:12:51.315Z,99551.78
2022-12-08T02:13:31.177Z,99555.69
2022-12-08T02:14:14.216Z,99550.34
2022-12-08T02:14:54.196Z,99548.72
2022-12-08T02:15:56.387Z,99556.53
2022-12-08T02:16:58.189Z,99548.44
2022-12-08T02:18:12.199Z,99569.72
2022-12-08T02:19:38.182Z,99559.69
2022-12-08T02:20:29.163Z,99552.63
2022-12-08T02:21:16.238Z,99566.50
2022-12-08T02:22:39.167Z,99531.06
2022-12-08T02:23:33.268Z,99563.44
2022-12-08T02:24:41.163Z,99564.41
2022-12-08T02:25:28.278Z,99543.75
2022-12-08T02:27:09.169Z,99563.53
2022-12-08T02:28:17.208Z,99565.50
2022-12-08T02:29:46.257Z,99566.63
2022-12-08T02:31:01.240Z,99568.06
2022-12-08T02:32:37.148Z,99559.81
2022-12-08T02:34:12.200Z,99570.97
2022-12-08T02:35:14.164Z,99558.50
2022-12-08T02:36:28.150Z,99565.16
2022-12-08T02:37:35.141Z,99563.06
2022-12-08T02:38:30.208Z,99551.69
2022-12-08T02:39:34.256Z,99562.53
2022-12-08T02:40:43.170Z,99558.94
2022-12-08T02:41:38.374Z,99565.56
2022-12-08T02:42:48.180Z,99541.19
2022-12-08T02:43:34.180Z,99558.25
2022-12-08T02:44:42.091Z,99561.16
2022-12-08T02:45:52.245Z,99577.34
2022-12-08T02:46:39.115Z,99574.44
2022-12-08T02:47:23.180Z,99571.66
2022-12-08T02:48:05.115Z,99566.72
2022-12-08T02:48:45.258Z,99568.03
2022-12-08T02:49:26.134Z,99572.13
2022-12-08T02:50:08.335Z,99570.53
2022-12-08T02:50:49.114Z,99571.56
2022-12-08T02:51:29.155Z,99579.03
2022-12-08T02:52:38.150Z,99574.84
2022-12-08T02:53:25.115Z,99579.25
2022-12-08T02:54:19.108Z,99570.09
2022-12-08T02:55:20.161Z,99576.97
2022-12-08T02:56:45.166Z,99582.28
2022-12-08T02:57:54.304Z,99567.88
2022-12-08T02:59:18.209Z,99562.03
2022-12-08T03:00:12.178Z,99557.00
2022-12-08T03:01:21.228Z,99566.13
2022-12-08T03:02:33.236Z,99571.75
2022-12-08T03:03:42.121Z,99571.66
2022-12-08T03:04:57.162Z,99576.06
2022-12-08T03:06:07.123Z,99565.78
2022-12-08T03:07:19.141Z,99566.53
2022-12-08T03:08:22.190Z,99569.00
2022-12-08T03:09:47.122Z,99557.88
2022-12-08T03:10:39.123Z,99563.88
2022-12-08T03:11:31.135Z,99556.28
2022-12-08T03:12:42.139Z,99557.06
2022-12-08T03:13:32.163Z,99563.13
2022-12-08T03:14:14.071Z,99553.81
2022-12-08T03:14:59.196Z,99559.34
2022-12-08T03:15:41.144Z,99553.16
2022-12-08T03:16:27.207Z,99552.13
2022-12-08T03:17:08.103Z,99564.47
2022-12-08T03:17:54.324Z,99557.63
2022-12-08T03:18:37.088Z,99563.44
2022-12-08T03:19:26.201Z,99553.16
2022-12-08T03:20:11.074Z,99549.94
2022-12-08T03:21:00.127Z,99530.50
2022-12-08T03:21:55.104Z,99554.78
2022-12-08T03:22:49.125Z,99552.97
2022-12-08T03:23:44.095Z,99541.28
2022-12-08T03:24:38.175Z,99550.03
2022-12-08T03:25:37.057Z,99549.84
2022-12-08T03:26:43.099Z,99548.97
2022-12-08T03:27:23.112Z,99554.81
2022-12-08T03:28:11.099Z,99546.50
2022-12-08T03:28:45.092Z,99552.31
2022-12-08T03:29:32.312Z,99536.16
2022-12-08T03:30:07.450Z,99546.88
2022-12-08T03:30:56.227Z,99546.31
2022-12-08T03:31:34.319Z,99550.41
2022-12-08T03:32:46.084Z,99538.63
2022-12-08T03:33:32.142Z,99547.66
2022-12-08T03:34:13.104Z,99546.59
2022-12-08T03:34:55.145Z,99542.78
2022-12-08T03:35:39.071Z,99547.09
2022-12-08T03:36:20.150Z,99535.97
2022-12-08T03:37:01.049Z,99547.94
2022-12-08T03:37:53.103Z,99551.94
2022-12-08T03:38:56.046Z,99542.34
2022-12-08T03:39:50.068Z,99536.91
2022-12-08T03:40:44.055Z,99526.91
2022-12-08T03:41:38.080Z,99539.69
2022-12-08T03:42:32.050Z,99518.63
2022-12-08T03:43:13.057Z,99540.91
2022-12-08T03:44:00.133Z,99548.69
2022-12-08T03:44:41.071Z,99554.22
2022-12-08T03:45:21.556Z,99562.22
2022-12-08T03:46:01.124Z,99553.66
2022-12-08T03:46:41.275Z,99569.25
2022-12-08T03:47:21.065Z,99569.41
2022-12-08T03:48:01.120Z,99574.56
2022-12-08T03:48:41.105Z,99569.03
2022-12-08T03:49:21.078Z,99561.44
2022-12-08T03:50:01.147Z,99574.38
2022-12-08T03:50:41.071Z,99566.47
2022-12-08T03:51:22.167Z,99568.66
2022-12-08T03:52:02.192Z,99558.03
2022-12-08T03:52:42.034Z,99564.09
2022-12-08T03:53:22.275Z,99568.28
2022-12-08T03:54:03.158Z,99567.63
2022-12-08T03:54:43.179Z,99550.88
2022-12-08T03:55:24.092Z,99563.25
2022-12-08T03:56:04.322Z,99564.03
2022-12-08T03:56:46.050Z,99561.84
2022-12-08T03:57:26.111Z,99558.78
2022-12-08T03:58:06.055Z,99564.78
2022-12-08T03:58:47.059Z,99552.97
2022-12-08T03:59:27.113Z,99554.50
2022-12-08T04:00:07.363Z,99556.88
2022-12-08T04:00:48.064Z,99559.44
2022-12-08T04:01:29.243Z,99560.69
2022-12-08T04:02:09.118Z,99562.38
2022-12-08T04:02:49.141Z,99563.06
2022-12-08T04:03:30.094Z,99560.84
2022-12-08T04:04:11.494Z,99553.66
2022-12-08T04:04:51.068Z,99552.13
2022-12-08T04:05:31.192Z,99542.16
2022-12-08T04:06:12.002Z,99542.72
2022-12-08T04:06:52.199Z,99532.91
2022-12-08T04:07:32.045Z,99549.09
2022-12-08T04:08:12.116Z,99536.16
2022-12-08T04:08:52.032Z,99535.19
2022-12-08T04:09:32.090Z,99536.53
2022-12-08T04:10:13.074Z,99535.66
2022-12-08T04:10:53.072Z,99533.28
2022-12-08T04:11:33.090Z,99529.50
2022-12-08T04:12:14.096Z,99523.03
2022-12-08T04:12:55.037Z,99529.09
2022-12-08T04:13:36.104Z,99525.31
2022-12-08T04:14:17.037Z,99528.25
2022-12-08T04:14:57.140Z,99524.94
2022-12-08T04:15:37.105Z,99527.38
2022-12-08T04:16:27.959Z,99528.16
2022-12-08T04:17:09.042Z,99523.69
2022-12-08T04:17:50.082Z,99535.19
2022-12-08T04:18:30.011Z,99537.47
2022-12-08T04:19:10.061Z,99538.03
2022-12-08T04:19:50.043Z,99537.94
2022-12-08T04:20:30.191Z,99535.75
2022-12-08T04:21:10.052Z,99525.31
2022-12-08T04:21:50.118Z,99535.97
2022-12-08T04:22:31.032Z,99536.50
2022-12-08T04:23:12.290Z,99540.69
2022-12-08T04:24:00.627Z,99540.91
2022-12-08T04:24:41.123Z,99543.94
2022-12-08T04:25:21.973Z,99541.38
2022-12-08T04:26:02.091Z,99539.00
2022-12-08T04:26:42.091Z,99543.75
2022-12-08T04:27:22.150Z,99551.56
2022-12-08T04:28:03.048Z,99545.47
2022-12-08T04:28:43.065Z,99544.72
2022-12-08T04:29:23.037Z,99548.13
2022-12-08T04:30:03.632Z,99542.72
2022-12-08T04:30:43.996Z,99529.38
2022-12-08T04:31:24.111Z,99539.94
2022-12-08T04:32:05.067Z,99531.88
2022-12-08T04:32:47.483Z,99541.28
2022-12-08T04:33:28.032Z,99534.34
2022-12-08T04:34:08.291Z,99523.97
2022-12-08T04:34:48.049Z,99521.69
2022-12-08T04:35:28.158Z,99544.72
2022-12-08T04:36:10.973Z,99537.47
2022-12-08T04:36:51.107Z,99536.63
2022-12-08T04:37:32.034Z,99535.19
2022-12-08T04:38:12.041Z,99523.78
2022-12-08T04:38:51.996Z,99531.66
2022-12-08T04:39:32.059Z,99524.16
2022-12-08T04:40:12.995Z,99527.41
2022-12-08T04:40:53.102Z,99526.63
2022-12-08T04:41:34.008Z,99533.31
2022-12-08T04:42:14.075Z,99528.63
2022-12-08T04:42:54.007Z,99537.09
2022-12-08T04:43:34.121Z,99528.63
2022-12-08T04:44:14.050Z,99537.00
2022-12-08T04:44:54.136Z,99528.91
2022-12-08T04:45:34.022Z,99531.38
2022-12-08T04:46:15.141Z,99526.06
2022-12-08T04:46:55.018Z,99526.63
2022-12-08T04:47:35.106Z,99521.47
2022-12-08T04:48:19.008Z,99534.41
2022-12-08T04:48:59.054Z,99528.91
2022-12-08T04:49:39.007Z,99525.50
2022-12-08T04:50:19.049Z,99533.59
2022-12-08T04:51:00.019Z,99527.56
2022-12-08T04:51:40.063Z,99526.16
2022-12-08T04:52:20.003Z,99517.50
2022-12-08T04:53:00.097Z,99523.22
2022-12-08T04:53:46.312Z,99530.91
2022-12-08T04:54:27.064Z,99532.25
2022-12-08T04:55:07.992Z,99532.06
2022-12-08T04:55:51.308Z,99524.91
2022-12-08T04:56:31.975Z,99532.91
2022-12-08T04:57:12.027Z,99532.72
2022-12-08T04:57:52.962Z,99527.00
2022-12-08T04:58:33.139Z,99513.13
2022-12-08T04:59:13.032Z,99531.97
2022-12-08T04:59:53.096Z,99526.81
2022-12-08T05:00:33.990Z,99523.13
2022-12-08T05:01:14.102Z,99531.97
2022-12-08T05:01:54.125Z,99531.94
2022-12-08T05:02:34.124Z,99526.91
2022-12-08T05:03:15.020Z,99524.25
2022-12-08T05:03:55.009Z,99515.22
2022-12-08T05:04:35.059Z,99529.19
2022-12-08T05:05:16.088Z,99514.06
2022-12-08T05:05:57.008Z,99534.25
2022-12-08T05:06:37.210Z,99531.38
2022-12-08T05:07:18.065Z,99522.84
2022-12-08T05:07:58.164Z,99532.34
2022-12-08T05:08:40.012Z,99526.22
2022-12-08T05:09:20.341Z,99529.09
2022-12-08T05:10:01.254Z,99536.53
2022-12-08T05:10:43.019Z,99530.84
2022-12-08T05:11:22.959Z,99517.31
2022-12-08T05:12:03.019Z,99530.25
2022-12-08T05:12:42.973Z,99524.34
2022-12-08T05:13:23.086Z,99531.00
2022-12-08T05:14:02.963Z,99527.88
2022-12-08T05:14:43.983Z,99537.66
2022-12-08T05:15:25.092Z,99530.44
2022-12-08T05:16:13.242Z,99526.63
2022-12-08T05:16:54.017Z,99531.34
2022-12-08T05:17:34.049Z,99535.44
2022-12-08T05:18:14.961Z,99529.97
2022-12-08T05:18:55.148Z,99531.88
2022-12-08T05:19:36.043Z,99525.31
2022-12-08T05:20:17.119Z,99526.06
2022-12-08T05:20:57.002Z,99528.34
2022-12-08T05:21:37.024Z,99535.19
2022-12-08T05:22:16.940Z,99534.91
2022-12-08T05:22:57.000Z,99531.00
2022-12-08T05:23:36.976Z,99524.25
2022-12-08T05:24:18.060Z,99532.13
2022-12-08T05:24:57.989Z,99535.75
2022-12-08T05:25:38.093Z,99525.47
2022-12-08T05:26:17.984Z,99522.25
2022-12-08T05:26:57.968Z,99530.22
2022-12-08T05:27:37.960Z,99524.81
2022-12-08T05:28:40.715Z,99528.56
2022-12-08T05:29:18.936Z,99518.94
2022-12-08T05:29:59.021Z,99529.09
2022-12-08T05:30:38.950Z,99531.66
2022-12-08T05:31:28.118Z,99525.47
2022-12-08T05:32:21.948Z,99532.13
2022-12-08T05:33:16.119Z,99531.09
2022-12-08T05:34:09.986Z,99523.41
2022-12-08T05:35:03.928Z,99520.38
2022-12-08T05:35:58.921Z,99530.53
2022-12-08T05:36:46.935Z,99527.41
2022-12-08T05:37:21.328Z,99525.88
2022-12-08T05:38:07.950Z,99521.47
2022-12-08T05:38:42.005Z,99529.31
2022-12-08T05:39:28.956Z,99523.97
2022-12-08T05:40:03.388Z,99521.97
2022-12-08T05:40:50.916Z,99519.22
2022-12-08T05:41:26.992Z,99528.81
2022-12-08T05:42:06.954Z,99527.78
2022-12-08T05:42:47.002Z,99521.03
2022-12-08T05:43:27.913Z,99525.56
2022-12-08T05:44:08.048Z,99516.94
2022-12-08T05:44:47.941Z,99518.75
2022-12-08T05:45:28.127Z,99524.16
2022-12-08T05:46:09.024Z,99520.47
2022-12-08T05:46:49.100Z,99522.53
2022-12-08T05:47:35.738Z,99529.47
2022-12-08T05:48:16.986Z,99518.06
2022-12-08T05:48:57.943Z,99519.00
2022-12-08T05:49:39.077Z,99517.13
2022-12-08T05:50:18.923Z,99524.34
2022-12-08T05:50:59.988Z,99520.19
2022-12-08T05:51:39.956Z,99515.13
2022-12-08T05:52:20.053Z,99519.69
2022-12-08T05:53:00.969Z,99523.22
2022-12-08T05:53:40.973Z,99520.19
2022-12-08T05:54:20.921Z,99513.69
2022-12-08T05:55:01.112Z,99522.94
2022-12-08T05:55:40.906Z,99521.88
2022-12-08T05:56:21.006Z,99521.88
2022-12-08T05:57:00.903Z,99516.38
2022-12-08T05:57:41.008Z,99518.63
2022-12-08T05:58:27.975Z,99520.81
2022-12-08T05:59:07.968Z,99515.88
2022-12-08T05:59:47.939Z,99527.97
2022-12-08T06:00:27.928Z,99519.22
2022-12-08T06:01:07.887Z,99523.59
2022-12-08T06:01:48.090Z,99521.50
2022-12-08T06:02:28.987Z,99530.34
2022-12-08T06:03:09.659Z,99525.88
2022-12-08T06:03:49.978Z,99521.28
2022-12-08T06:04:29.973Z,99529.97
2022-12-08T06:05:10.948Z,99526.91
2022-12-08T06:05:53.011Z,99518.44
2022-12-08T06:06:34.907Z,99527.38
2022-12-08T06:07:16.360Z,99532.81
2022-12-08T06:07:56.909Z,99527.78
2022-12-08T06:08:36.969Z,99521.31
2022-12-08T06:09:19.001Z,99523.00
2022-12-08T06:09:59.085Z,99530.53
2022-12-08T06:10:38.884Z,99532.25
2022-12-08T06:11:27.933Z,99530.53
2022-12-08T06:12:08.938Z,99533.66
2022-12-08T06:12:48.980Z,99534.72
2022-12-08T06:13:28.928Z,99533.66
2022-12-08T06:14:08.946Z,99521.47
2022-12-08T06:14:48.956Z,99530.25
2022-12-08T06:15:28.959Z,99530.53
2022-12-08T06:16:12.935Z,99524.56
2022-12-08T06:16:54.052Z,99530.34
2022-12-08T06:17:34.932Z,99528.53
2022-12-08T06:18:16.033Z,99517.91
2022-12-08T06:18:56.954Z,99521.50
2022-12-08T06:19:36.943Z,99518.63
2022-12-08T06:20:16.948Z,99522.06
2022-12-08T06:20:56.941Z,99525.69
2022-12-08T06:21:37.905Z,99525.69
2022-12-08T06:22:17.937Z,99527.66
2022-12-08T06:22:57.919Z,99531.38
2022-12-08T06:23:37.972Z,99521.19
2022-12-08T06:24:17.895Z,99533.66
2022-12-08T06:24:57.975Z,99530.50
2022-12-08T06:25:37.917Z,99535.75
2022-12-08T06:26:20.913Z,99531.75
2022-12-08T06:27:00.863Z,99534.81
2022-12-08T06:27:40.959Z,99544.13
2022-12-08T06:28:20.878Z,99535.38
2022-12-08T06:29:00.991Z,99530.72
2022-12-08T06:29:40.895Z,99537.00
2022-12-08T06:30:23.131Z,99527.75
2022-12-08T06:31:03.956Z,99535.56
2022-12-08T06:31:45.095Z,99540.88
2022-12-08T06:32:27.583Z,99523.28
2022-12-08T06:33:07.979Z,99528.22
2022-12-08T06:33:48.876Z,99525.84
2022-12-08T06:34:28.956Z,99516.03
2022-12-08T06:35:09.915Z,99536.22
2022-12-08T06:35:50.031Z,99531.06
2022-12-08T06:36:33.968Z,99528.88
2022-12-08T06:37:27.903Z,99537.34
2022-12-08T06:38:21.904Z,99531.25
2022-12-08T06:39:15.855Z,99527.56
2022-12-08T06:40:09.877Z,99520.28
2022-12-08T06:41:11.908Z,99528.66
2022-12-08T06:42:17.996Z,99529.97
2022-12-08T06:42:51.941Z,99521.91
2022-12-08T06:43:39.892Z,99529.78
2022-12-08T06:44:14.010Z,99522.72
2022-12-08T06:45:01.905Z,99532.88
2022-12-08T06:45:36.029Z,99522.63
2022-12-08T06:46:25.956Z,99530.72
2022-12-08T06:47:00.008Z,99539.97
2022-12-08T06:47:39.921Z,99542.69
2022-12-08T06:48:20.920Z,99538.88
2022-12-08T06:49:00.872Z,99530.16
2022-12-08T06:49:44.137Z,99534.84
2022-12-08T06:50:24.886Z,99542.13
2022-12-08T06:51:13.109Z,99542.97
2022-12-08T06:51:53.880Z,99546.59
2022-12-08T06:52:39.089Z,99548.72
2022-12-08T06:53:25.883Z,99533.75
2022-12-08T06:54:06.095Z,99544.03
2022-12-08T06:54:45.825Z,99547.22
2022-12-08T06:55:51.256Z,99546.34
2022-12-08T06:56:26.871Z,99544.22
2022-12-08T06:57:07.976Z,99545.94
2022-12-08T06:57:47.890Z,99544.69
2022-12-08T06:58:35.869Z,99543.94
2022-12-08T06:59:29.876Z,99544.56
2022-12-08T07:00:24.874Z,99556.81
2022-12-08T07:01:24.914Z,99544.03
2022-12-08T07:02:19.897Z,99545.94
2022-12-08T07:03:13.846Z,99540.81
2022-12-08T07:04:00.919Z,99549.16
2022-12-08T07:04:35.100Z,99546.88
2022-12-08T07:05:21.849Z,99540.41
2022-12-08T07:06:05.001Z,99539.22
2022-12-08T07:06:45.851Z,99545.75
2022-12-08T07:07:25.917Z,99547.44
2022-12-08T07:08:05.857Z,99539.44
2022-12-08T07:08:45.863Z,99539.44
2022-12-08T07:09:25.921Z,99548.88
2022-12-08T07:10:10.096Z,99538.59
2022-12-08T07:10:49.841Z,99549.66
2022-12-08T07:11:30.884Z,99539.63
2022-12-08T07:12:11.857Z,99536.66
2022-12-08T07:12:52.940Z,99542.97
2022-12-08T07:13:33.863Z,99535.13
2022-12-08T07:14:15.130Z,99528.94
2022-12-08T07:14:54.860Z,99540.47
2022-12-08T07:15:36.019Z,99530.44
2022-12-08T07:16:18.918Z,99527.22
2022-12-08T07:16:59.023Z,99525.31
2022-12-08T07:17:38.868Z,99535.97
2022-12-08T07:18:18.945Z,99522.03
2022-12-08T07:18:58.866Z,99533.22
2022-12-08T07:19:39.890Z,99521.41
2022-12-08T07:20:19.807Z,99531.03
2022-12-08T07:20:59.869Z,99535.97
2022-12-08T07:21:39.816Z,99531.09
2022-12-08T07:22:19.980Z,99538.25
2022-12-08T07:23:00.875Z,99522.22
2022-12-08T07:23:42.928Z,99525.97
2022-12-08T07:24:23.841Z,99526.59
2022-12-08T07:25:04.856Z,99532.50
2022-12-08T07:25:44.839Z,99528.13
2022-12-08T07:26:26.899Z,99534.97
2022-12-08T07:27:07.805Z,99525.03
2022-12-08T07:27:48.079Z,99521.94
2022-12-08T07:28:28.819Z,99526.41
2022-12-08T07:29:10.214Z,99525.75
2022-12-08T07:29:50.831Z,99518.53
2022-12-08T07:30:30.891Z,99511.44
2022-12-08T07:31:11.971Z,99527.25
2022-12-08T07:31:52.097Z,99531.13
2022-12-08T07:32:32.870Z,99517.78
2022-12-08T07:33:12.853Z,99524.06
2022-12-08T07:33:53.818Z,99521.41
2022-12-08T07:34:34.847Z,99516.16
2022-12-08T07:35:15.834Z,99521.06
2022-12-08T07:36:07.931Z,99521.81
2022-12-08T07:36:47.843Z,99519.38
2022-12-08T07:37:29.019Z,99526.75
2022-12-08T07:38:09.828Z,99524.94
2022-12-08T07:38:50.867Z,99522.97
2022-12-08T07:39:30.804Z,99519.38
2022-12-08T07:40:14.132Z,99512.97
2022-12-08T07:40:54.843Z,99517.16
2022-12-08T07:41:34.975Z,99517.88
2022-12-08T07:42:14.933Z,99517.69
2022-12-08T07:42:54.933Z,99519.69
2022-12-08T07:43:34.803Z,99507.50
2022-12-08T07:44:17.248Z,99511.28
2022-12-08T07:44:57.809Z,99509.34
2022-12-08T07:45:37.863Z,99509.34
2022-12-08T07:46:27.961Z,99521.78
2022-12-08T07:47:07.906Z,99527.50
2022-12-08T07:47:54.861Z,99522.69
2022-12-08T07:48:28.913Z,99504.25
2022-12-08T07:49:15.827Z,99511.84
2022-12-08T07:49:49.874Z,99519.22
2022-12-08T07:50:36.791Z,99520.38
2022-12-08T07:51:13.037Z,99515.25
2022-12-08T07:52:01.788Z,99510.88
2022-12-08T07:52:35.953Z,99523.66
2022-12-08T07:53:15.826Z,99516.75
2022-12-08T07:53:58.853Z,99525.41
2022-12-08T07:54:38.828Z,99519.13
2022-12-08T07:55:18.857Z,99525.84
2022-12-08T07:55:59.805Z,99520.41
2022-12-08T07:56:42.164Z,99515.78
2022-12-08T07:57:22.810Z,99519.75
2022-12-08T07:58:02.944Z,99507.78
2022-12-08T07:58:43.833Z,99520.09
2022-12-08T07:59:23.916Z,99518.41
2022-12-08T08:00:04.088Z,99519.34
2022-12-08T08:00:44.872Z,99516.47
2022-12-08T08:01:36.009Z,99525.88
2022-12-08T08:02:26.523Z,99512.69
2022-12-08T08:03:07.850Z,99513.78
2022-12-08T08:03:54.807Z,99518.16
2022-12-08T08:04:48.923Z,99510.69
2022-12-08T08:05:43.792Z,99514.09
2022-12-08T08:06:38.803Z,99517.66
2022-12-08T08:07:34.934Z,99514.03
2022-12-08T08:08:29.910Z,99516.03
2022-12-08T08:09:16.797Z,99519.88
2022-12-08T08:09:50.841Z,99508.78
2022-12-08T08:10:38.834Z,99514.53
2022-12-08T08:11:20.985Z,99513.78
2022-12-08T08:12:30.131Z,99515.00
2022-12-08T08:13:05.897Z,99519.06
2022-12-08T08:13:56.836Z,99511.44
2022-12-08T08:14:37.884Z,99510.69
2022-12-08T08:15:31.996Z,99508.69
2022-12-08T08:16:25.938Z,99498.44
2022-12-08T08:17:19.864Z,99496.94
2022-12-08T08:18:16.770Z,99500.69
2022-12-08T08:19:10.830Z,99504.75
2022-12-08T08:19:58.785Z,99501.41
2022-12-08T08:20:32.851Z,99496.50
2022-12-08T08:22:15.929Z,99499.72
2022-12-08T08:23:02.808Z,99511.03
2022-12-08T08:23:36.904Z,99507.53
2022-12-08T08:24:27.767Z,99490.63
2022-12-08T08:25:08.787Z,99503.53
2022-12-08T08:26:03.770Z,99504.84
2022-12-08T08:26:59.795Z,99488.59
2022-12-08T08:27:54.825Z,99495.63
2022-12-08T08:28:52.793Z,99503.22
2022-12-08T08:29:46.827Z,99494.28
2022-12-08T08:30:33.805Z,99500.22
2022-12-08T08:31:08.907Z,99500.66
2022-12-08T08:31:56.755Z,99499.91
2022-12-08T08:32:30.827Z,99501.44
2022-12-08T08:33:17.818Z,99500.66
2022-12-08T08:33:52.106Z,99501.63
2022-12-08T08:34:38.792Z,99502.28
2022-12-08T08:35:15.362Z,99482.50
2022-12-08T08:35:58.061Z,99504.94
2022-12-08T08:36:39.821Z,99500.88
2022-12-08T08:37:20.833Z,99497.88
2022-12-08T08:38:00.829Z,99507.19
2022-12-08T08:38:42.838Z,99500.88
2022-12-08T08:39:22.821Z,99497.69
2022-12-08T08:40:03.209Z,99501.94
2022-12-08T08:40:43.916Z,99503.22
2022-12-08T08:41:24.815Z,99510.09
2022-12-08T08:42:18.797Z,99504.94
2022-12-08T08:43:16.003Z,99512.31
2022-12-08T08:44:09.819Z,99508.06
2022-12-08T08:45:03.752Z,99501.75
2022-12-08T08:45:57.793Z,99505.03
2022-12-08T08:46:44.942Z,99506.75
2022-12-08T08:47:18.901Z,99496.94
2022-12-08T08:48:06.726Z,99508.81
2022-12-08T08:48:40.926Z,99502.16